createdAt,value
2023-03-03T00:01:41.898Z,95142.28
2023-03-03T00:04:09.846Z,95137.91
2023-03-03T00:06:37.815Z,95142.09
2023-03-03T00:09:07.120Z,95142.91
2023-03-03T00:11:35.025Z,95136.50
2023-03-03T00:14:02.943Z,95131.34
2023-03-03T00:16:36.474Z,95137.47
2023-03-03T00:19:04.938Z,95134.19
2023-03-03T00:21:34.398Z,95134.38
2023-03-03T00:24:24.537Z,95141.13
2023-03-03T00:26:55.546Z,95135.00
2023-03-03T00:29:36.202Z,95143.19
2023-03-03T00:32:26.140Z,95146.97
2023-03-03T00:34:56.193Z,95151.69
2023-03-03T00:37:29.206Z,95141.28
2023-03-03T00:40:15.013Z,95147.78
2023-03-03T00:42:44.169Z,95155.97
2023-03-03T00:45:25.600Z,95148.75
2023-03-03T00:47:53.832Z,95147.50
2023-03-03T00:50:33.415Z,95147.50
2023-03-03T00:53:07.369Z,95144.13
2023-03-03T00:55:37.212Z,95150.72
2023-03-03T00:58:05.791Z,95156.31
2023-03-03T01:00:38.754Z,95155.41
2023-03-03T01:03:10.631Z,95155.31
2023-03-03T01:05:38.704Z,95150.69
2023-03-03T01:08:07.156Z,95143.75
2023-03-03T01:10:40.354Z,95152.47
2023-03-03T01:13:09.532Z,95155.66
2023-03-03T01:15:38.822Z,95153.84
2023-03-03T01:18:06.993Z,95152.69
2023-03-03T01:20:35.055Z,95150.50
2023-03-03T01:23:03.166Z,95155.03
2023-03-03T01:25:31.284Z,95150.50
2023-03-03T01:28:01.228Z,95159.22
2023-03-03T01:30:29.655Z,95158.25
2023-03-03T01:32:57.706Z,95155.31
2023-03-03T01:35:25.760Z,95150.16
2023-03-03T01:37:53.781Z,95161.28
2023-03-03T01:40:24.768Z,95153.34
2023-03-03T01:42:53.418Z,95148.19
2023-03-03T01:45:25.567Z,95145.97
2023-03-03T01:47:57.732Z,95144.66
2023-03-03T01:50:37.057Z,95146.25
2023-03-03T01:53:07.831Z,95141.44
2023-03-03T01:55:40.707Z,95148.09
2023-03-03T01:58:12.198Z,95137.78
2023-03-03T02:00:45.992Z,95139.31
2023-03-03T02:03:13.976Z,95143.13
2023-03-03T02:05:44.319Z,95141.19
2023-03-03T02:08:16.276Z,95143.75
2023-03-03T02:10:46.012Z,95144.56
2023-03-03T02:13:13.954Z,95145.13
2023-03-03T02:15:43.732Z,95147.78
2023-03-03T02:18:14.364Z,95146.19
2023-03-03T02:20:58.463Z,95143.97
2023-03-03T02:23:32.818Z,95137.84
2023-03-03T02:26:08.085Z,95134.00
2023-03-03T02:28:38.470Z,95137.47
2023-03-03T02:31:13.379Z,95132.31
2023-03-03T02:33:43.466Z,95139.63
2023-03-03T02:36:14.955Z,95148.53
2023-03-03T02:38:49.605Z,95142.88
2023-03-03T02:41:28.045Z,95141.38
2023-03-03T02:44:00.556Z,95140.38
2023-03-03T02:46:30.016Z,95137.38
2023-03-03T02:48:57.970Z,95143.47
2023-03-03T02:51:26.047Z,95145.50
2023-03-03T02:53:53.986Z,95141.50
2023-03-03T02:56:23.447Z,95141.50
2023-03-03T02:58:51.389Z,95140.88
2023-03-03T03:01:20.333Z,95143.47
2023-03-03T03:03:48.529Z,95143.63
2023-03-03T03:06:20.533Z,95140.25
2023-03-03T03:08:48.938Z,95141.59
2023-03-03T03:11:17.194Z,95149.63
2023-03-03T03:13:46.710Z,95152.84
2023-03-03T03:16:14.642Z,95146.72
2023-03-03T03:18:42.743Z,95150.56
2023-03-03T03:21:12.835Z,95153.41
2023-03-03T03:23:42.017Z,95153.41
2023-03-03T03:26:10.804Z,95154.22
2023-03-03T03:28:39.638Z,95156.97
2023-03-03T03:31:10.639Z,95158.91
2023-03-03T03:33:38.790Z,95148.25
2023-03-03T03:36:08.819Z,95157.94
2023-03-03T03:38:37.781Z,95161.22
2023-03-03T03:41:08.931Z,95153.19
2023-03-03T03:43:37.213Z,95154.78
2023-03-03T03:46:05.797Z,95143.81
2023-03-03T03:48:36.283Z,95150.13
2023-03-03T03:51:06.675Z,95151.56
2023-03-03T03:53:35.692Z,95151.56
2023-03-03T03:56:03.667Z,95149.97
2023-03-03T03:58:32.285Z,95160.00
2023-03-03T04:01:05.908Z,95155.81
2023-03-03T04:03:38.071Z,95150.66
2023-03-03T04:06:11.438Z,95152.97
2023-03-03T04:08:39.627Z,95147.19
2023-03-03T04:11:09.480Z,95149.75
2023-03-03T04:13:38.485Z,95160.06
2023-03-03T04:16:08.652Z,95154.75
2023-03-03T04:18:38.641Z,95158.13
2023-03-03T04:21:07.444Z,95165.22
2023-03-03T04:23:35.650Z,95158.13
2023-03-03T04:26:04.041Z,95161.66
2023-03-03T04:28:32.052Z,95159.19
2023-03-03T04:31:00.935Z,95156.16
2023-03-03T04:33:31.337Z,95161.75
2023-03-03T04:36:01.553Z,95157.88
2023-03-03T04:38:30.127Z,95159.13
2023-03-03T04:40:58.424Z,95156.72
2023-03-03T04:43:29.267Z,95158.50
2023-03-03T04:45:58.218Z,95152.72
2023-03-03T04:48:26.456Z,95162.09
2023-03-03T04:50:55.034Z,95165.31
2023-03-03T04:53:24.429Z,95160.16
2023-03-03T04:55:54.057Z,95163.69
2023-03-03T04:58:23.630Z,95164.03
2023-03-03T05:00:56.253Z,95162.09
2023-03-03T05:03:27.157Z,95163.69
2023-03-03T05:05:55.148Z,95163.69
2023-03-03T05:08:25.065Z,95166.28
2023-03-03T05:10:54.157Z,95172.41
2023-03-03T05:13:22.725Z,95175.13
2023-03-03T05:15:52.255Z,95164.34
2023-03-03T05:18:20.983Z,95171.59
2023-03-03T05:20:49.085Z,95173.66
2023-03-03T05:23:17.177Z,95173.31
2023-03-03T05:25:47.979Z,95170.44
2023-03-03T05:28:16.315Z,95176.28
2023-03-03T05:30:44.400Z,95170.66
2023-03-03T05:33:15.191Z,95172.72
2023-03-03T05:35:43.488Z,95172.06
2023-03-03T05:38:11.722Z,95171.78
2023-03-03T05:40:39.886Z,95169.84
2023-03-03T05:43:09.191Z,95173.03
2023-03-03T05:45:37.127Z,95171.44
2023-03-03T05:48:05.325Z,95175.00
2023-03-03T05:50:33.603Z,95175.00
2023-03-03T05:53:01.542Z,95176.94
2023-03-03T05:55:29.604Z,95183.34
2023-03-03T05:57:57.698Z,95173.84
2023-03-03T06:00:27.334Z,95182.09
2023-03-03T06:02:55.344Z,95172.47
2023-03-03T06:05:23.483Z,95188.25
2023-03-03T06:07:51.377Z,95186.66
2023-03-03T06:10:19.574Z,95188.59
2023-03-03T06:12:52.221Z,95186.66
2023-03-03T06:15:20.309Z,95190.19
2023-03-03T06:17:49.732Z,95186.66
2023-03-03T06:20:17.913Z,95188.59
2023-03-03T06:22:45.929Z,95188.25
2023-03-03T06:25:13.996Z,95193.06
2023-03-03T06:27:41.909Z,95191.13
2023-03-03T06:30:11.269Z,95189.19
2023-03-03T06:32:39.363Z,95203.25
2023-03-03T06:35:09.438Z,95205.44
2023-03-03T06:37:37.391Z,95195.13
2023-03-03T06:40:07.111Z,95193.84
2023-03-03T06:42:35.161Z,95201.56
2023-03-03T06:45:03.089Z,95209.56
2023-03-03T06:47:31.656Z,95207.97
2023-03-03T06:49:59.596Z,95206.03
2023-03-03T06:52:28.992Z,95214.03
2023-03-03T06:54:59.615Z,95216.56
2023-03-03T06:57:29.607Z,95215.47
2023-03-03T07:00:01.673Z,95221.19
2023-03-03T07:02:29.660Z,95226.47
2023-03-03T07:04:58.010Z,95228.06
2023-03-03T07:07:28.056Z,95229.03
2023-03-03T07:09:57.526Z,95235.00
2023-03-03T07:12:27.544Z,95229.97
2023-03-03T07:15:01.517Z,95226.41
2023-03-03T07:17:29.437Z,95227.50
2023-03-03T07:19:57.378Z,95224.63
2023-03-03T07:22:30.265Z,95231.84
2023-03-03T07:25:01.961Z,95232.13
2023-03-03T07:27:31.751Z,95227.31
2023-03-03T07:30:18.744Z,95233.50
2023-03-03T07:32:48.566Z,95237.97
2023-03-03T07:35:38.872Z,95231.84
2023-03-03T07:38:26.271Z,95238.81
2023-03-03T07:40:56.209Z,95238.16
2023-03-03T07:43:32.146Z,95239.75
2023-03-03T07:46:05.883Z,95243.88
2023-03-03T07:48:40.210Z,95246.13
2023-03-03T07:51:15.656Z,95243.59
2023-03-03T07:53:45.042Z,95248.34
2023-03-03T07:56:28.660Z,95252.47
2023-03-03T07:58:57.644Z,95254.28
2023-03-03T08:01:42.627Z,95257.59
2023-03-03T08:04:25.063Z,95263.06
2023-03-03T08:06:55.533Z,95265.25
2023-03-03T08:09:39.338Z,95269.09
2023-03-03T08:12:31.457Z,95270.63
2023-03-03T08:15:13.254Z,95271.25
2023-03-03T08:17:43.704Z,95273.81
2023-03-03T08:20:42.873Z,95266.91
2023-03-03T08:23:10.807Z,95265.91
2023-03-03T08:25:41.004Z,95269.66
2023-03-03T08:28:09.204Z,95267.09
2023-03-03T08:30:37.178Z,95270.66
2023-03-03T08:33:05.453Z,95266.69
2023-03-03T08:35:33.422Z,95262.09
2023-03-03T08:38:01.468Z,95261.81
2023-03-03T08:40:29.420Z,95257.63
2023-03-03T08:42:59.236Z,95266.94
2023-03-03T08:45:27.666Z,95262.00
2023-03-03T08:47:55.667Z,95260.97
2023-03-03T08:50:24.041Z,95255.75
2023-03-03T08:52:52.027Z,95257.63
2023-03-03T08:55:19.975Z,95253.19
2023-03-03T08:57:48.287Z,95252.34
2023-03-03T09:00:20.565Z,95243.63
2023-03-03T09:02:49.321Z,95254.66
2023-03-03T09:05:17.757Z,95259.50
2023-03-03T09:07:47.933Z,95258.97
2023-03-03T09:10:19.077Z,95250.88
2023-03-03T09:12:49.405Z,95256.66
2023-03-03T09:15:24.606Z,95257.19
2023-03-03T09:17:53.115Z,95262.44
2023-03-03T09:20:31.731Z,95256.56
2023-03-03T09:23:00.195Z,95254.53
2023-03-03T09:25:34.390Z,95255.78
2023-03-03T09:28:03.240Z,95260.06
2023-03-03T09:30:39.893Z,95269.47
2023-03-03T09:33:33.436Z,95267.09
2023-03-03T09:36:11.155Z,95259.78
2023-03-03T09:38:45.810Z,95259.44
2023-03-03T09:41:46.700Z,95263.31
2023-03-03T09:44:33.224Z,95264.22
2023-03-03T09:47:24.186Z,95269.03
2023-03-03T09:50:02.936Z,95267.19
2023-03-03T09:52:41.668Z,95268.06
2023-03-03T09:55:25.596Z,95262.38
2023-03-03T09:58:11.125Z,95276.63
2023-03-03T10:00:52.528Z,95266.66
2023-03-03T10:03:47.016Z,95266.28
2023-03-03T10:06:23.185Z,95270.38
2023-03-03T10:09:07.959Z,95271.00
2023-03-03T10:11:43.057Z,95281.94
2023-03-03T10:14:37.124Z,95279.78
2023-03-03T10:17:22.797Z,95283.59
2023-03-03T10:20:07.995Z,95282.75
2023-03-03T10:22:44.342Z,95288.28
2023-03-03T10:25:22.508Z,95283.34
2023-03-03T10:28:05.770Z,95277.44
2023-03-03T10:30:58.561Z,95271.28
2023-03-03T10:33:39.074Z,95274.75
2023-03-03T10:36:30.462Z,95264.88
2023-03-03T10:39:19.388Z,95263.31
2023-03-03T10:42:04.466Z,95271.47
2023-03-03T10:44:47.204Z,95273.78
2023-03-03T10:47:29.805Z,95277.81
2023-03-03T10:50:08.803Z,95285.78
2023-03-03T10:52:48.028Z,95278.53
2023-03-03T10:55:29.604Z,95279.53
2023-03-03T10:58:13.172Z,95273.16
2023-03-03T11:00:46.492Z,95273.44
2023-03-03T11:03:52.795Z,95274.09
2023-03-03T11:06:26.173Z,95278.75
2023-03-03T11:09:03.527Z,95276.16
2023-03-03T11:11:41.561Z,95272.31
2023-03-03T11:14:14.938Z,95270.75
2023-03-03T11:16:51.881Z,95275.63
2023-03-03T11:19:41.563Z,95271.16
2023-03-03T11:22:22.546Z,95278.84
2023-03-03T11:25:01.472Z,95277.72
2023-03-03T11:28:08.343Z,95277.56
2023-03-03T11:30:48.056Z,95275.38
2023-03-03T11:33:21.867Z,95276.88
2023-03-03T11:35:54.470Z,95275.03
2023-03-03T11:38:35.652Z,95286.13
2023-03-03T11:41:12.976Z,95285.63
2023-03-03T11:43:46.749Z,95278.63
2023-03-03T11:46:18.131Z,95274.91
2023-03-03T11:48:55.146Z,95280.94
2023-03-03T11:51:34.227Z,95276.38
2023-03-03T11:54:06.735Z,95270.16
2023-03-03T11:56:41.635Z,95272.00
2023-03-03T11:59:30.214Z,95270.69
2023-03-03T12:02:01.253Z,95278.88
2023-03-03T12:04:35.664Z,95267.47
2023-03-03T12:07:19.810Z,95266.16
2023-03-03T12:09:57.974Z,95265.91
2023-03-03T12:12:34.270Z,95259.44
2023-03-03T12:15:20.659Z,95255.16
2023-03-03T12:18:03.855Z,95263.19
2023-03-03T12:20:38.938Z,95255.75
2023-03-03T12:23:21.482Z,95252.41
2023-03-03T12:25:56.038Z,95250.69
2023-03-03T12:28:28.795Z,95253.50
2023-03-03T12:31:08.625Z,95255.47
2023-03-03T12:33:51.399Z,95248.69
2023-03-03T12:36:33.992Z,95251.91
2023-03-03T12:39:08.646Z,95255.75
2023-03-03T12:41:44.333Z,95253.28
2023-03-03T12:44:23.222Z,95256.50
2023-03-03T12:47:01.820Z,95261.19
2023-03-03T12:49:43.395Z,95250.38
2023-03-03T12:52:24.321Z,95252.56
2023-03-03T12:55:06.773Z,95245.78
2023-03-03T12:57:44.189Z,95246.03
2023-03-03T13:00:44.833Z,95245.16
2023-03-03T13:03:30.363Z,95238.00
2023-03-03T13:06:08.240Z,95239.97
2023-03-03T13:08:52.928Z,95232.97
2023-03-03T13:11:35.415Z,95234.38
2023-03-03T13:14:14.844Z,95236.47
2023-03-03T13:16:50.350Z,95236.34
2023-03-03T13:19:23.061Z,95243.31
2023-03-03T13:21:56.028Z,95241.81
2023-03-03T13:24:30.218Z,95237.47
2023-03-03T13:27:02.562Z,95241.81
2023-03-03T13:29:36.445Z,95240.97
2023-03-03T13:32:13.629Z,95234.72
2023-03-03T13:34:52.741Z,95233.81
2023-03-03T13:37:24.925Z,95238.72
2023-03-03T13:39:59.723Z,95242.34
2023-03-03T13:42:34.655Z,95240.75
2023-03-03T13:45:07.974Z,95232.47
2023-03-03T13:47:47.149Z,95241.56
2023-03-03T13:50:25.163Z,95233.75
2023-03-03T13:53:12.577Z,95234.72
2023-03-03T13:55:44.829Z,95226.81
2023-03-03T13:58:24.815Z,95223.63
2023-03-03T14:00:58.664Z,95233.75
2023-03-03T14:03:48.448Z,95225.84
2023-03-03T14:06:19.037Z,95233.25
2023-03-03T14:09:00.805Z,95226.66
2023-03-03T14:11:36.583Z,95227.13
2023-03-03T14:14:14.802Z,95228.38
2023-03-03T14:16:51.588Z,95226.38
2023-03-03T14:19:26.401Z,95228.78
2023-03-03T14:22:07.071Z,95226.38
2023-03-03T14:25:01.750Z,95224.00
2023-03-03T14:27:36.231Z,95217.22
2023-03-03T14:30:28.536Z,95218.78
2023-03-03T14:33:30.911Z,95215.59
2023-03-03T14:36:11.893Z,95214.81
2023-03-03T14:38:44.461Z,95220.56
2023-03-03T14:41:17.342Z,95216.94
2023-03-03T14:43:47.368Z,95218.72
2023-03-03T14:46:33.586Z,95219.19
2023-03-03T14:49:03.673Z,95210.41
2023-03-03T14:51:41.775Z,95209.22
2023-03-03T14:54:17.588Z,95209.03
2023-03-03T14:57:01.969Z,95219.22
2023-03-03T14:59:30.232Z,95204.81
2023-03-03T15:02:29.622Z,95203.03
2023-03-03T15:05:17.503Z,95197.41
2023-03-03T15:07:48.144Z,95200.81
2023-03-03T15:10:32.537Z,95202.81
2023-03-03T15:13:11.028Z,95205.19
2023-03-03T15:15:52.909Z,95191.84
2023-03-03T15:18:21.719Z,95194.44
2023-03-03T15:20:57.396Z,95195.66
2023-03-03T15:23:45.100Z,95199.22
2023-03-03T15:26:20.342Z,95194.03
2023-03-03T15:29:01.724Z,95194.03
2023-03-03T15:31:38.716Z,95198.84
2023-03-03T15:34:26.714Z,95208.44
2023-03-03T15:37:03.433Z,95196.03
2023-03-03T15:39:42.241Z,95199.63
2023-03-03T15:42:15.406Z,95197.66
2023-03-03T15:44:57.547Z,95199.25
2023-03-03T15:47:46.196Z,95200.44
2023-03-03T15:50:27.747Z,95193.66
2023-03-03T15:53:09.189Z,95191.25
2023-03-03T15:55:53.652Z,95194.84
2023-03-03T15:58:52.091Z,95202.81
2023-03-03T16:01:27.807Z,95206.03
2023-03-03T16:03:59.063Z,95198.84
2023-03-03T16:06:39.830Z,95205.22
2023-03-03T16:09:19.556Z,95202.03
2023-03-03T16:11:55.946Z,95205.22
2023-03-03T16:15:01.958Z,95201.63
2023-03-03T16:17:37.923Z,95206.41
2023-03-03T16:20:16.671Z,95211.63
2023-03-03T16:22:57.180Z,95218.81
2023-03-03T16:25:43.824Z,95212.03
2023-03-03T16:28:19.593Z,95214.03
2023-03-03T16:30:53.779Z,95221.03
2023-03-03T16:33:27.992Z,95226.03
2023-03-03T16:36:04.643Z,95232.41
2023-03-03T16:38:38.287Z,95232.81
2023-03-03T16:41:10.274Z,95232.78
2023-03-03T16:43:47.448Z,95241.97
2023-03-03T16:46:26.609Z,95253.56
2023-03-03T16:49:02.450Z,95239.75
2023-03-03T16:51:42.646Z,95256.72
2023-03-03T16:54:17.373Z,95259.25
2023-03-03T16:56:52.832Z,95251.22
2023-03-03T16:59:53.089Z,95262.19
2023-03-03T17:02:49.498Z,95262.50
2023-03-03T17:05:30.455Z,95274.84
2023-03-03T17:08:20.112Z,95271.78
2023-03-03T17:10:53.337Z,95275.13
2023-03-03T17:13:46.908Z,95278.63
2023-03-03T17:16:23.579Z,95285.34
2023-03-03T17:19:05.540Z,95285.25
2023-03-03T17:21:42.766Z,95290.41
2023-03-03T17:24:19.492Z,95294.84
2023-03-03T17:26:59.429Z,95305.59
2023-03-03T17:29:59.547Z,95293.34
2023-03-03T17:32:53.557Z,95301.63
2023-03-03T17:35:57.240Z,95306.44
2023-03-03T17:38:37.362Z,95304.84
2023-03-03T17:41:10.420Z,95304.84
2023-03-03T17:43:48.990Z,95312.41
2023-03-03T17:46:22.350Z,95315.09
2023-03-03T17:49:11.240Z,95318.09
2023-03-03T17:51:55.236Z,95313.44
2023-03-03T17:54:44.432Z,95309.09
2023-03-03T17:57:26.873Z,95304.94
2023-03-03T18:00:26.529Z,95316.59
2023-03-03T18:03:35.394Z,95320.09
2023-03-03T18:06:54.190Z,95330.88
2023-03-03T18:09:37.942Z,95338.69
2023-03-03T18:12:13.586Z,95338.09
2023-03-03T18:15:07.968Z,95341.47
2023-03-03T18:17:52.700Z,95344.31
2023-03-03T18:20:34.105Z,95348.06
2023-03-03T18:23:29.517Z,95338.00
2023-03-03T18:26:00.157Z,95342.84
2023-03-03T18:28:45.301Z,95338.03
2023-03-03T18:31:24.338Z,95339.66
2023-03-03T18:34:09.380Z,95339.28
2023-03-03T18:36:40.375Z,95350.25
2023-03-03T18:39:15.384Z,95341.19
2023-03-03T18:42:10.410Z,95353.53
2023-03-03T18:44:38.570Z,95353.91
2023-03-03T18:47:06.751Z,95357.91
2023-03-03T18:50:16.184Z,95362.16
2023-03-03T18:53:14.530Z,95363.09
2023-03-03T18:55:44.936Z,95367.38
2023-03-03T18:58:42.212Z,95366.56
2023-03-03T19:01:41.846Z,95378.94
2023-03-03T19:04:25.183Z,95371.81
2023-03-03T19:07:14.201Z,95374.69
2023-03-03T19:09:56.812Z,95372.06
2023-03-03T19:12:54.642Z,95382.03
2023-03-03T19:15:57.224Z,95379.97
2023-03-03T19:18:27.846Z,95380.41
2023-03-03T19:21:01.676Z,95382.72
2023-03-03T19:23:51.106Z,95385.13
2023-03-03T19:26:42.056Z,95386.25
2023-03-03T19:29:26.093Z,95390.16
2023-03-03T19:32:06.438Z,95388.78
2023-03-03T19:34:41.204Z,95384.97
2023-03-03T19:37:23.390Z,95389.56
2023-03-03T19:40:00.915Z,95379.69
2023-03-03T19:42:47.430Z,95381.94
2023-03-03T19:45:34.345Z,95384.41
2023-03-03T19:48:08.470Z,95385.84
2023-03-03T19:50:49.114Z,95385.47
2023-03-03T19:53:26.734Z,95381.56
2023-03-03T19:56:07.437Z,95382.38
2023-03-03T19:58:45.031Z,95393.25
2023-03-03T20:01:24.403Z,95385.84
2023-03-03T20:04:17.548Z,95388.78
2023-03-03T20:06:56.119Z,95390.03
2023-03-03T20:09:42.725Z,95400.34
2023-03-03T20:12:39.191Z,95397.69
2023-03-03T20:15:15.929Z,95399.94
2023-03-03T20:18:21.475Z,95411.94
2023-03-03T20:21:01.732Z,95406.75
2023-03-03T20:23:36.567Z,95404.91
2023-03-03T20:26:13.783Z,95406.88
2023-03-03T20:28:57.797Z,95410.53
2023-03-03T20:31:33.848Z,95408.84
2023-03-03T20:34:11.181Z,95411.53
2023-03-03T20:36:50.587Z,95407.25
2023-03-03T20:39:29.627Z,95415.19
2023-03-03T20:42:09.374Z,95412.25
2023-03-03T20:45:00.543Z,95412.63
2023-03-03T20:47:39.633Z,95419.38
2023-03-03T20:50:22.768Z,95419.03
2023-03-03T20:53:07.677Z,95413.41
2023-03-03T20:55:44.344Z,95417.13
2023-03-03T20:58:20.232Z,95425.25
2023-03-03T21:00:53.926Z,95426.53
2023-03-03T21:03:29.780Z,95427.78
2023-03-03T21:06:00.772Z,95427.78
2023-03-03T21:08:44.903Z,95428.13
2023-03-03T21:11:14.601Z,95428.38
2023-03-03T21:13:44.299Z,95429.00
2023-03-03T21:16:30.304Z,95430.63
2023-03-03T21:18:59.064Z,95421.00
2023-03-03T21:21:29.766Z,95425.69
2023-03-03T21:23:59.649Z,95421.97
2023-03-03T21:26:55.865Z,95426.16
2023-03-03T21:29:26.684Z,95422.41
2023-03-03T21:31:56.209Z,95428.03
2023-03-03T21:34:30.228Z,95426.31
2023-03-03T21:36:59.480Z,95428.56
2023-03-03T21:39:30.921Z,95422.69
2023-03-03T21:42:01.908Z,95423.22
2023-03-03T21:44:32.320Z,95423.47
2023-03-03T21:47:00.379Z,95422.25
2023-03-03T21:49:28.715Z,95425.81
2023-03-03T21:51:57.664Z,95429.28
2023-03-03T21:54:25.809Z,95425.44
2023-03-03T21:56:55.141Z,95425.44
2023-03-03T21:59:23.064Z,95424.47
2023-03-03T22:01:50.975Z,95429.28
2023-03-03T22:04:19.076Z,95431.84
2023-03-03T22:06:47.063Z,95424.91
2023-03-03T22:09:15.382Z,95428.28
2023-03-03T22:11:43.314Z,95427.94
2023-03-03T22:14:12.853Z,95433.09
2023-03-03T22:16:40.859Z,95434.69
2023-03-03T22:19:10.227Z,95430.97
2023-03-03T22:21:39.077Z,95423.66
2023-03-03T22:24:07.844Z,95426.69
2023-03-03T22:26:36.632Z,95415.34
2023-03-03T22:29:05.000Z,95414.22
2023-03-03T22:31:34.358Z,95419.03
2023-03-03T22:34:02.332Z,95427.03
2023-03-03T22:36:30.259Z,95427.03
2023-03-03T22:38:58.176Z,95428.28
2023-03-03T22:41:26.059Z,95423.47
2023-03-03T22:43:54.002Z,95427.78
2023-03-03T22:46:21.977Z,95429.72
2023-03-03T22:48:51.479Z,95434.84
2023-03-03T22:51:22.077Z,95427.72
2023-03-03T22:53:50.218Z,95429.28
2023-03-03T22:56:18.164Z,95434.34
2023-03-03T22:58:46.110Z,95428.81
2023-03-03T23:01:14.188Z,95429.38
2023-03-03T23:03:42.169Z,95432.22
2023-03-03T23:06:11.406Z,95433.47
2023-03-03T23:08:39.400Z,95430.50
2023-03-03T23:11:07.305Z,95427.94
2023-03-03T23:13:35.357Z,95435.06
2023-03-03T23:16:03.463Z,95432.75
2023-03-03T23:18:31.478Z,95421.25
2023-03-03T23:20:59.473Z,95427.56
2023-03-03T23:23:29.694Z,95424.72
2023-03-03T23:25:57.933Z,95427.03
2023-03-03T23:28:25.885Z,95421.88
2023-03-03T23:30:53.812Z,95425.69
2023-03-03T23:33:21.857Z,95426.31
2023-03-03T23:35:49.941Z,95429.53
2023-03-03T23:38:17.966Z,95432.59
2023-03-03T23:40:47.707Z,95431.13
2023-03-03T23:43:15.704Z,95428.28
2023-03-03T23:45:43.758Z,95440.59
2023-03-03T23:48:11.916Z,95442.47
2023-03-03T23:50:40.032Z,95435.97
2023-03-03T23:53:08.928Z,95435.78
2023-03-03T23:55:37.717Z,95441.59
2023-03-03T23:58:07.241Z,95440.78
